Terminal Aerodrome Forecast
Issued by NWS

Home | Current Version | Previous Version | Text Only | Print | Product List | Glossary On
Versions: 1 2 3 4 5 6 7 8 9 10 11 12
000
FTUS41 KCAR 040520
TAFHUL
TAF
KHUL 040520Z 0406/0506 18005KT P6SM SKC
     FM041500 20010KT P6SM FEW250
     FM041800 21014G24KT P6SM SCT250
     FM050300 26007KT P6SM VCSH BKN080 OVC150=

USA.gov is the U.S. government's official web portal to all federal, state and local government web resources and services.